Livingston, KY (40445)

10:41 PM EST on March 05, 2015 (GMT -0500)
Denny Subdivision | Change Station
CLOSE
Current Station
Personal Weather Station
Location: Mount Vernon, KY
Elevation: 1181 ft
Nearby Weather Stations

Elev 1181 ft 37.31 °N, 84.39 °W | Updated 13 seconds ago

Partly Cloudy
Partly Cloudy
9.7 °F
Feels Like 10 °F
N
0.0
Wind Variable Wind from ESE
Gusts 0.0 mph

Today
High -- | Low -- °F
--% Chance of Precip.
Yesterday
High -- | Low -- °F
Precip. -- in
7:02 AM 6:34 PM
Full, 100% visible
Pressure 30.55 in
Visibility 9.0 miles
Clouds Clear
Windchill 10 °F
Dew Point 8 °F
Humidity 94%
Rainfall in
Snow Depth Not available.
UV 0 out of 12
Pollen .70 out of 12
Air Quality Not available.
Flu Activity Not available.
METAR KLOZ 060253Z AUTO 00000KT 9SM CLR M11/M15 A3049 RMK AO2 SLP343 I1001 I3001 T11111150 51014

More Conditions Fewer Conditions

Pressure 30.55 in
Visibility 9.0 miles
Clouds Clear
Windchill 10 °F
Dew Point 8 °F
Humidity 94%
Rainfall in
Snow Depth Not available.
UV 0 out of 12
Pollen .70 out of 12
Air Quality Not available.
Flu Activity Not available.
METAR KLOZ 060253Z AUTO 00000KT 9SM CLR M11/M15 A3049 RMK AO2 SLP343 I1001 I3001 T11111150 51014

More Conditions Fewer Conditions

10-Day Weather Forecast

Almanac

Astronomy

Mar. 05, 2015 Rise Set
Actual Time
Civil Twilight
Nautical Twilight
Astronomical Twilight
Moon
Length of Visible Light
Length of Day
Tomorrow will be .
, % of the Moon is Illuminated

Today's Extremes

State Highs State Lows

Community

WunderPhotos

Upload Photos

1,803,171 photos uploaded!

WunderBlogs® & News

Nearby

Air Quality

  Air Quality AQ Index Pollutant
Not available.

Snow Depth

Station Depth Elevation

Earthquake Activity

City Distance Mag. Time & Date
Minimum magnitude displayed is 2.5.

Coastal Water Temperatures

Place Temperature

Nearby Weather Stations

Special Statement
Statement as of 10:22 PM EST on March 05, 2015

... Slick Road conditions will continue through early Friday
morning...

Slick roads will continue through tonight and into early Friday
morning due to the recent snowfall... in addition to this there
have been reports of patchy ground fog. Combine this with
subfreezing temperatures expected tonight... any melted snow will
likely refreeze on roads... adding to the danger. The subfreezing
temperatures will also be harmful to people and animals who are
outside.


Kas/dj

350 PM EST Thu Mar 5 2015

... Slick Road conditions will continue through early Friday
morning...

Slick roads will continue through tonight and into early Friday
morning due to the recent snowfall. With subfreezing temperatures
expected tonight... any melted snow will likely refreeze on
roads... adding to the danger. The subfreezing temperatures will
also be harmful to people and animals who are outside.


Kas